createdAt,value
2023-03-19T00:00:56.631Z,6.63
2023-03-19T00:03:24.645Z,8.32
2023-03-19T00:05:53.862Z,7.07
2023-03-19T00:08:22.667Z,6.90
2023-03-19T00:10:50.970Z,6.72
2023-03-19T00:13:18.783Z,7.22
2023-03-19T00:15:48.282Z,7.15
2023-03-19T00:18:16.137Z,7.13
2023-03-19T00:20:44.340Z,6.72
2023-03-19T00:23:12.205Z,6.80
2023-03-19T00:25:40.019Z,6.55
2023-03-19T00:28:07.943Z,7.85
2023-03-19T00:30:35.758Z,6.55
2023-03-19T00:33:05.031Z,7.43
2023-03-19T00:35:33.452Z,6.40
2023-03-19T00:38:01.958Z,6.20
2023-03-19T00:40:33.448Z,5.25
2023-03-19T00:43:01.462Z,5.93
2023-03-19T00:45:30.863Z,6.70
2023-03-19T00:47:58.840Z,6.50
2023-03-19T00:50:28.039Z,6.68
2023-03-19T00:52:55.813Z,6.50
2023-03-19T00:55:25.573Z,5.95
2023-03-19T00:57:53.524Z,6.30
2023-03-19T01:00:22.422Z,5.85
2023-03-19T01:02:50.535Z,7.05
2023-03-19T01:05:18.332Z,6.45
2023-03-19T01:07:50.684Z,5.78
2023-03-19T01:10:19.417Z,5.60
2023-03-19T01:12:47.265Z,5.07
2023-03-19T01:15:15.677Z,7.38
2023-03-19T01:17:44.095Z,6.72
2023-03-19T01:20:14.125Z,6.45
2023-03-19T01:22:42.577Z,6.55
2023-03-19T01:25:14.294Z,5.63
2023-03-19T01:27:52.031Z,5.30
2023-03-19T01:30:21.870Z,6.40
2023-03-19T01:33:13.505Z,6.00
2023-03-19T01:36:03.700Z,6.20
2023-03-19T01:38:39.182Z,5.70
2023-03-19T01:41:13.414Z,6.63
2023-03-19T01:43:41.494Z,5.32
2023-03-19T01:46:28.344Z,5.70
2023-03-19T01:49:15.029Z,6.97
2023-03-19T01:51:48.808Z,6.60
2023-03-19T01:54:32.549Z,5.78
2023-03-19T01:57:20.929Z,5.93
2023-03-19T02:00:08.716Z,6.38
2023-03-19T02:02:50.398Z,7.20
2023-03-19T02:05:50.529Z,5.65
2023-03-19T02:08:22.860Z,5.95
2023-03-19T02:13:21.183Z,6.10
2023-03-19T02:15:49.183Z,6.00
2023-03-19T02:18:17.157Z,6.07
2023-03-19T02:20:56.130Z,5.90
2023-03-19T02:23:34.542Z,5.82
2023-03-19T02:26:11.113Z,5.82
2023-03-19T02:28:42.488Z,6.40
2023-03-19T02:31:18.338Z,5.85
2023-03-19T02:33:46.286Z,6.00
2023-03-19T02:36:17.624Z,7.22
2023-03-19T02:38:47.655Z,6.07
2023-03-19T02:41:16.818Z,5.25
2023-03-19T02:43:44.838Z,6.05
2023-03-19T02:46:14.167Z,7.25
2023-03-19T02:48:42.539Z,6.00
2023-03-19T02:51:10.601Z,5.93
2023-03-19T02:53:38.465Z,6.30
2023-03-19T02:56:06.991Z,6.10
2023-03-19T02:58:36.486Z,5.63
2023-03-19T03:01:04.631Z,6.45
2023-03-19T03:03:33.161Z,5.45
2023-03-19T03:06:01.371Z,6.38
2023-03-19T03:08:29.412Z,6.38
2023-03-19T03:10:57.788Z,6.53
2023-03-19T03:13:25.642Z,6.75
2023-03-19T03:15:54.921Z,4.88
2023-03-19T03:18:23.176Z,5.07
2023-03-19T03:20:51.271Z,6.22
2023-03-19T03:23:19.440Z,6.78
2023-03-19T03:25:50.851Z,6.85
2023-03-19T03:28:19.053Z,7.20
2023-03-19T03:30:47.604Z,6.25
2023-03-19T03:33:17.628Z,6.57
2023-03-19T03:35:45.728Z,6.55
2023-03-19T03:38:13.797Z,4.65
2023-03-19T03:40:41.797Z,5.18
2023-03-19T03:43:10.479Z,5.22
2023-03-19T03:45:38.433Z,5.75
2023-03-19T03:48:06.503Z,5.50
2023-03-19T03:50:36.554Z,6.28
2023-03-19T03:53:09.479Z,6.38
2023-03-19T03:55:37.687Z,6.50
2023-03-19T03:58:06.373Z,6.50
2023-03-19T04:00:35.086Z,7.40
2023-03-19T04:03:03.257Z,5.95
2023-03-19T04:05:31.422Z,6.10
2023-03-19T04:08:00.557Z,6.05
2023-03-19T04:10:28.415Z,6.07
2023-03-19T04:12:56.154Z,5.45
2023-03-19T04:15:24.181Z,6.05
2023-03-19T04:17:54.859Z,6.38
2023-03-19T04:20:23.684Z,5.72
2023-03-19T04:22:51.466Z,5.55
2023-03-19T04:25:20.854Z,5.45
2023-03-19T04:27:48.854Z,5.50
2023-03-19T04:30:16.983Z,6.15
2023-03-19T04:32:45.242Z,6.00
2023-03-19T04:35:13.259Z,6.70
2023-03-19T04:37:41.967Z,6.43
2023-03-19T04:40:10.963Z,6.53
2023-03-19T04:42:41.436Z,6.85
2023-03-19T04:45:16.795Z,6.32
2023-03-19T04:47:45.461Z,6.82
2023-03-19T04:50:13.931Z,6.32
2023-03-19T04:52:43.841Z,6.65
2023-03-19T04:55:13.075Z,6.45
2023-03-19T04:57:52.581Z,6.68
2023-03-19T05:00:24.329Z,6.90
2023-03-19T05:02:52.211Z,6.45
2023-03-19T05:05:20.061Z,5.53
2023-03-19T05:07:48.281Z,7.00
2023-03-19T05:10:16.862Z,6.95
2023-03-19T05:12:44.996Z,6.68
2023-03-19T05:15:15.135Z,6.13
2023-03-19T05:17:52.187Z,5.65
2023-03-19T05:20:24.076Z,5.50
2023-03-19T05:22:58.426Z,6.28
2023-03-19T05:25:37.402Z,5.80
2023-03-19T05:28:08.540Z,5.72
2023-03-19T05:30:37.960Z,7.53
2023-03-19T05:33:17.362Z,6.95
2023-03-19T05:35:47.047Z,5.97
2023-03-19T05:38:27.696Z,6.57
2023-03-19T05:41:05.984Z,6.35
2023-03-19T05:43:47.951Z,6.22
2023-03-19T05:46:30.093Z,6.72
2023-03-19T05:48:58.142Z,6.13
2023-03-19T05:51:26.384Z,7.13
2023-03-19T05:53:54.232Z,7.05
2023-03-19T05:56:27.592Z,5.72
2023-03-19T05:59:14.044Z,6.18
2023-03-19T06:01:47.817Z,5.93
2023-03-19T06:04:15.887Z,5.97
2023-03-19T06:06:43.803Z,6.20
2023-03-19T06:09:12.039Z,6.28
2023-03-19T06:11:42.974Z,6.35
2023-03-19T06:14:33.948Z,5.78
2023-03-19T06:17:25.762Z,6.30
2023-03-19T06:19:57.115Z,7.43
2023-03-19T06:22:25.412Z,6.05
2023-03-19T06:24:53.238Z,5.47
2023-03-19T06:27:21.690Z,6.03
2023-03-19T06:29:49.558Z,6.47
2023-03-19T06:32:23.260Z,6.70
2023-03-19T06:34:55.105Z,5.60
2023-03-19T06:37:23.808Z,6.63
2023-03-19T06:39:54.536Z,6.22
2023-03-19T06:42:22.681Z,7.40
2023-03-19T06:44:53.485Z,6.72
2023-03-19T06:47:21.639Z,6.18
2023-03-19T06:49:49.411Z,6.43
2023-03-19T06:52:18.585Z,7.35
2023-03-19T06:54:46.509Z,6.50
2023-03-19T06:57:14.269Z,5.65
2023-03-19T06:59:42.138Z,5.15
2023-03-19T07:02:12.407Z,6.47
2023-03-19T07:04:40.229Z,5.38
2023-03-19T07:07:08.050Z,4.78
2023-03-19T07:09:37.220Z,5.25
2023-03-19T07:12:05.733Z,5.30
2023-03-19T07:14:33.516Z,5.43
2023-03-19T07:17:01.553Z,6.03
2023-03-19T07:19:29.356Z,6.68
2023-03-19T07:21:57.370Z,7.32
2023-03-19T07:24:25.297Z,7.03
2023-03-19T07:26:54.410Z,6.32
2023-03-19T07:29:23.074Z,7.82
2023-03-19T07:31:51.028Z,6.55
2023-03-19T07:34:18.895Z,7.05
2023-03-19T07:36:47.155Z,6.00
2023-03-19T07:39:15.106Z,5.72
2023-03-19T07:41:44.773Z,6.50
2023-03-19T07:44:17.745Z,6.45
2023-03-19T07:46:45.532Z,6.72
2023-03-19T07:49:13.313Z,6.93
2023-03-19T07:51:41.078Z,4.90
2023-03-19T07:54:08.965Z,5.10
2023-03-19T07:56:36.752Z,6.55
2023-03-19T07:59:04.647Z,6.63
2023-03-19T08:01:34.007Z,6.72
2023-03-19T08:04:01.928Z,7.80
2023-03-19T08:06:29.822Z,7.47
2023-03-19T08:08:57.659Z,7.68
2023-03-19T08:11:25.490Z,7.30
2023-03-19T08:13:53.469Z,7.70
2023-03-19T08:16:21.500Z,6.28
2023-03-19T08:18:52.589Z,5.45
2023-03-19T08:21:20.972Z,6.18
2023-03-19T08:23:48.849Z,7.13
2023-03-19T08:26:17.037Z,6.97
2023-03-19T08:28:44.825Z,6.60
2023-03-19T08:31:14.432Z,6.80
2023-03-19T08:33:42.813Z,5.97
2023-03-19T08:36:14.314Z,7.10
2023-03-19T08:38:42.711Z,5.85
2023-03-19T08:41:10.973Z,6.63
2023-03-19T08:43:39.408Z,6.85
2023-03-19T08:46:07.359Z,5.85
2023-03-19T08:48:35.197Z,5.93
2023-03-19T08:51:04.244Z,6.53
2023-03-19T08:53:34.249Z,5.68
2023-03-19T08:56:03.989Z,5.55
2023-03-19T08:58:32.520Z,5.25
2023-03-19T09:01:05.297Z,5.40
2023-03-19T09:03:33.177Z,5.03
2023-03-19T09:06:01.616Z,5.00
2023-03-19T09:08:29.559Z,4.93
2023-03-19T09:10:59.368Z,4.40
2023-03-19T09:13:27.414Z,4.57
2023-03-19T09:15:55.860Z,4.00
2023-03-19T09:18:25.538Z,4.65
2023-03-19T09:20:53.821Z,4.60
2023-03-19T09:23:21.822Z,4.35
2023-03-19T09:25:49.979Z,4.35
2023-03-19T09:28:19.654Z,5.55
2023-03-19T09:30:48.383Z,5.05
2023-03-19T09:33:16.472Z,5.10
2023-03-19T09:35:44.763Z,5.20
2023-03-19T09:38:12.551Z,3.67
2023-03-19T09:40:44.556Z,4.20
2023-03-19T09:43:38.671Z,4.55
2023-03-19T09:46:14.707Z,5.20
2023-03-19T09:48:50.540Z,3.92
2023-03-19T09:51:23.451Z,4.38
2023-03-19T09:53:57.399Z,4.25
2023-03-19T09:56:27.031Z,4.22
2023-03-19T09:58:56.518Z,4.97
2023-03-19T10:01:31.047Z,5.22
2023-03-19T10:04:20.113Z,3.97
2023-03-19T10:06:48.097Z,4.70
2023-03-19T10:09:33.811Z,4.78
2023-03-19T10:12:14.536Z,4.30
2023-03-19T10:14:55.027Z,4.93
2023-03-19T10:17:28.478Z,4.25
2023-03-19T10:20:00.087Z,4.45
2023-03-19T10:22:33.103Z,4.45
2023-03-19T10:25:02.706Z,4.57
2023-03-19T10:27:30.449Z,4.55
2023-03-19T10:29:59.569Z,5.28
2023-03-19T10:32:39.261Z,4.53
2023-03-19T10:35:17.597Z,4.40
2023-03-19T10:37:46.257Z,3.78
2023-03-19T10:40:22.481Z,3.38
2023-03-19T10:43:05.329Z,3.60
2023-03-19T10:45:38.667Z,4.40
2023-03-19T10:48:13.198Z,3.35
2023-03-19T10:50:49.514Z,3.30
2023-03-19T10:53:31.972Z,3.42
2023-03-19T10:56:03.774Z,3.50
2023-03-19T10:58:33.205Z,3.60
2023-03-19T11:01:06.975Z,3.72
2023-03-19T11:03:37.863Z,2.80
2023-03-19T11:06:08.849Z,3.42
2023-03-19T11:08:38.970Z,3.67
2023-03-19T11:11:06.796Z,3.08
2023-03-19T11:13:36.446Z,3.00
2023-03-19T11:16:06.082Z,3.33
2023-03-19T11:18:40.434Z,3.17
2023-03-19T11:21:22.439Z,3.28
2023-03-19T11:23:54.342Z,3.20
2023-03-19T11:26:24.511Z,2.90
2023-03-19T11:28:53.099Z,2.92
2023-03-19T11:31:28.946Z,3.00
2023-03-19T11:34:03.737Z,2.60
2023-03-19T11:36:35.126Z,2.72
2023-03-19T11:39:19.561Z,4.80
2023-03-19T11:42:05.655Z,2.70
2023-03-19T11:44:42.220Z,2.75
2023-03-19T11:47:26.770Z,2.80
2023-03-19T11:50:18.466Z,2.33
2023-03-19T11:52:59.450Z,1.75
2023-03-19T11:55:33.012Z,1.98
2023-03-19T11:58:26.691Z,2.45
2023-03-19T12:00:56.905Z,2.28
2023-03-19T12:04:04.255Z,1.65
2023-03-19T12:06:42.767Z,1.55
2023-03-19T12:09:18.256Z,1.10
2023-03-19T12:11:53.638Z,1.20
2023-03-19T12:14:33.996Z,1.17
2023-03-19T12:17:18.413Z,1.25
2023-03-19T12:20:11.806Z,1.25
2023-03-19T12:22:55.913Z,1.15
2023-03-19T12:25:36.437Z,1.00
2023-03-19T12:28:11.404Z,1.10
2023-03-19T12:30:43.299Z,1.27
2023-03-19T12:33:22.435Z,1.50
2023-03-19T12:35:56.788Z,1.02
2023-03-19T12:38:28.773Z,1.25
2023-03-19T12:41:01.892Z,0.93
2023-03-19T12:43:36.207Z,1.30
2023-03-19T12:46:10.465Z,1.60
2023-03-19T12:48:43.674Z,1.30
2023-03-19T12:51:16.848Z,1.33
2023-03-19T12:53:50.474Z,1.40
2023-03-19T12:56:25.426Z,1.02
2023-03-19T12:59:01.144Z,1.00
2023-03-19T13:01:36.111Z,1.42
2023-03-19T13:04:09.543Z,1.45
2023-03-19T13:06:42.238Z,1.40
2023-03-19T13:09:16.786Z,1.42
2023-03-19T13:11:49.774Z,1.20
2023-03-19T13:14:23.081Z,1.20
2023-03-19T13:17:01.952Z,0.90
2023-03-19T13:19:36.394Z,1.35
2023-03-19T13:22:10.770Z,0.80
2023-03-19T13:24:40.740Z,1.00
2023-03-19T13:27:14.673Z,1.00
2023-03-19T13:29:57.128Z,1.17
2023-03-19T13:32:30.630Z,0.98
2023-03-19T13:35:14.356Z,1.70
2023-03-19T13:37:45.125Z,1.60
2023-03-19T13:40:39.460Z,1.30
2023-03-19T13:43:40.884Z,1.30
2023-03-19T13:46:40.627Z,1.20
2023-03-19T13:49:29.597Z,1.20
2023-03-19T13:52:01.389Z,1.10
2023-03-19T13:54:40.213Z,1.45
2023-03-19T13:57:20.614Z,1.05
2023-03-19T13:59:50.405Z,0.80
2023-03-19T14:02:49.034Z,0.80
2023-03-19T14:05:22.775Z,0.85
2023-03-19T14:07:56.414Z,0.90
2023-03-19T14:10:28.623Z,1.00
2023-03-19T14:13:08.130Z,0.90
2023-03-19T14:15:40.099Z,1.02
2023-03-19T14:18:18.689Z,1.30
2023-03-19T14:20:53.946Z,1.02
2023-03-19T14:23:38.399Z,1.23
2023-03-19T14:26:16.356Z,1.20
2023-03-19T14:29:01.920Z,1.08
2023-03-19T14:31:34.852Z,1.30
2023-03-19T14:34:10.068Z,1.50
2023-03-19T14:36:42.768Z,1.40
2023-03-19T14:39:19.341Z,1.10
2023-03-19T14:41:51.747Z,1.00
2023-03-19T14:45:01.162Z,1.30
2023-03-19T14:47:52.833Z,1.30
2023-03-19T14:50:53.742Z,1.05
2023-03-19T14:53:26.444Z,0.93
2023-03-19T14:55:54.899Z,1.05
2023-03-19T14:58:24.156Z,1.00
2023-03-19T15:00:54.830Z,0.70
2023-03-19T15:03:31.553Z,0.88
2023-03-19T15:06:01.289Z,0.80
2023-03-19T15:08:32.273Z,0.98
2023-03-19T15:11:25.540Z,0.82
2023-03-19T15:14:04.722Z,0.80
2023-03-19T15:16:40.577Z,0.90
2023-03-19T15:19:10.893Z,1.10
2023-03-19T15:21:39.070Z,0.75
2023-03-19T15:24:08.112Z,0.70
2023-03-19T15:26:37.883Z,0.90
2023-03-19T15:29:12.056Z,0.80
2023-03-19T15:31:52.575Z,0.73
2023-03-19T15:34:27.792Z,0.90
2023-03-19T15:37:00.700Z,0.70
2023-03-19T15:39:33.836Z,0.60
2023-03-19T15:42:02.688Z,0.50
2023-03-19T15:44:38.389Z,0.80
2023-03-19T15:47:10.401Z,0.57
2023-03-19T15:49:42.390Z,0.82
2023-03-19T15:52:14.073Z,0.80
2023-03-19T15:54:42.850Z,0.70
2023-03-19T15:57:13.480Z,0.65
2023-03-19T15:59:43.239Z,0.70
2023-03-19T16:02:18.902Z,0.60
2023-03-19T16:05:14.184Z,0.70
2023-03-19T16:07:43.149Z,0.50
2023-03-19T16:10:35.044Z,0.60
2023-03-19T16:13:05.661Z,1.27
2023-03-19T16:15:43.633Z,0.65
2023-03-19T16:18:24.591Z,0.70
2023-03-19T16:21:02.649Z,0.60
2023-03-19T16:23:33.177Z,0.90
2023-03-19T16:26:17.824Z,0.73
2023-03-19T16:28:50.178Z,0.80
2023-03-19T16:31:25.435Z,0.80
2023-03-19T16:33:54.116Z,0.80
2023-03-19T16:36:22.704Z,0.90
2023-03-19T16:38:57.157Z,0.90
2023-03-19T16:41:32.130Z,0.70
2023-03-19T16:44:14.464Z,1.10
2023-03-19T16:46:44.000Z,0.90
2023-03-19T16:49:11.898Z,1.10
2023-03-19T16:51:40.357Z,0.93
2023-03-19T16:54:08.296Z,0.80
2023-03-19T16:56:36.462Z,0.90
2023-03-19T16:59:04.751Z,1.20
2023-03-19T17:01:32.659Z,1.00
2023-03-19T17:04:01.801Z,1.10
2023-03-19T17:06:34.328Z,1.20
2023-03-19T17:09:02.214Z,1.42
2023-03-19T17:11:34.679Z,1.20
2023-03-19T17:16:31.267Z,1.40
2023-03-19T17:18:59.305Z,2.63
2023-03-19T17:21:32.418Z,1.88
2023-03-19T17:36:21.347Z,1.25
2023-03-19T17:38:50.585Z,1.60
2023-03-19T17:41:19.959Z,1.20
2023-03-19T17:43:48.559Z,1.45
2023-03-19T17:46:19.365Z,1.40
2023-03-19T17:48:47.876Z,1.73
2023-03-19T17:51:16.763Z,1.60
2023-03-19T17:53:47.327Z,1.92
2023-03-19T17:56:18.790Z,1.48
2023-03-19T17:58:48.021Z,1.90
2023-03-19T18:01:19.945Z,1.60
2023-03-19T18:03:49.078Z,1.73
2023-03-19T18:06:19.568Z,1.30
2023-03-19T18:08:47.672Z,1.40
2023-03-19T18:11:16.855Z,1.55
2023-03-19T18:13:44.838Z,1.30
2023-03-19T18:16:19.587Z,1.63
2023-03-19T18:18:47.560Z,1.38
2023-03-19T18:21:16.873Z,1.50
2023-03-19T18:23:45.443Z,1.52
2023-03-19T18:26:13.964Z,1.25
2023-03-19T18:28:43.125Z,1.92
2023-03-19T18:31:16.022Z,1.85
2023-03-19T18:33:47.764Z,2.15
2023-03-19T18:36:19.121Z,2.80
2023-03-19T18:38:46.990Z,2.20
2023-03-19T18:41:19.095Z,5.00
2023-03-19T18:44:05.716Z,11.20
2023-03-19T18:46:34.704Z,7.57
2023-03-19T18:49:07.717Z,5.45
2023-03-19T18:51:35.552Z,4.38
2023-03-19T18:54:03.768Z,3.17
2023-03-19T18:56:33.461Z,2.97
2023-03-19T18:59:03.567Z,2.35
2023-03-19T19:01:32.853Z,2.30
2023-03-19T19:04:00.935Z,2.10
2023-03-19T19:06:46.526Z,2.03
2023-03-19T19:09:15.338Z,2.80
2023-03-19T19:11:47.616Z,2.42
2023-03-19T19:14:21.788Z,4.30
2023-03-19T19:16:52.224Z,4.32
2023-03-19T19:19:23.160Z,3.30
2023-03-19T19:21:51.488Z,3.97
2023-03-19T19:24:19.341Z,4.22
2023-03-19T19:26:50.846Z,3.97
2023-03-19T19:29:23.529Z,4.10
2023-03-19T19:31:53.773Z,2.60
2023-03-19T19:34:21.677Z,2.50
2023-03-19T19:36:50.826Z,3.00
2023-03-19T19:39:18.948Z,3.22
2023-03-19T19:41:47.895Z,2.85
2023-03-19T19:44:19.951Z,2.70
2023-03-19T19:46:47.803Z,1.90
2023-03-19T19:49:16.964Z,2.22
2023-03-19T19:51:44.720Z,3.05
2023-03-19T19:54:12.621Z,3.72
2023-03-19T19:56:41.310Z,3.67
2023-03-19T19:59:14.903Z,2.70
2023-03-19T20:01:42.798Z,2.53
2023-03-19T20:04:14.717Z,2.22
2023-03-19T20:06:43.856Z,1.80
2023-03-19T20:09:11.691Z,2.00
2023-03-19T20:11:39.945Z,1.45
2023-03-19T20:14:13.721Z,1.25
2023-03-19T20:16:41.634Z,1.42
2023-03-19T20:19:17.841Z,1.42
2023-03-19T20:21:47.144Z,1.70
2023-03-19T20:24:14.882Z,1.70
2023-03-19T20:26:43.205Z,1.30
2023-03-19T20:29:14.320Z,1.52
2023-03-19T20:31:42.257Z,1.38
2023-03-19T20:34:22.493Z,1.33
2023-03-19T20:36:58.043Z,1.40
2023-03-19T20:39:26.053Z,1.33
2023-03-19T20:41:53.973Z,1.15
2023-03-19T20:44:26.163Z,1.20
2023-03-19T20:46:54.004Z,1.65
2023-03-19T20:49:21.868Z,1.30
2023-03-19T20:51:49.676Z,1.40
2023-03-19T20:54:18.815Z,1.42
2023-03-19T20:56:47.636Z,1.90
2023-03-19T20:59:15.483Z,1.50
2023-03-19T21:01:43.721Z,1.55
2023-03-19T21:04:19.208Z,1.80
2023-03-19T21:06:53.328Z,2.03
2023-03-19T21:09:25.481Z,1.60
2023-03-19T21:11:53.351Z,1.98
2023-03-19T21:14:23.197Z,1.63
2023-03-19T21:16:51.112Z,1.50
2023-03-19T21:19:19.018Z,1.23
2023-03-19T21:21:48.183Z,1.20
2023-03-19T21:24:20.076Z,1.40
2023-03-19T21:26:50.027Z,1.20
2023-03-19T21:29:27.196Z,0.82
2023-03-19T21:31:56.625Z,1.20
2023-03-19T21:34:24.491Z,1.20
2023-03-19T21:36:52.420Z,1.15
2023-03-19T21:39:20.568Z,1.05
2023-03-19T21:41:49.669Z,0.90
2023-03-19T21:44:21.551Z,1.10
2023-03-19T21:46:49.987Z,1.30
2023-03-19T21:49:18.189Z,0.90
2023-03-19T21:51:46.723Z,1.25
2023-03-19T21:54:15.658Z,1.10
2023-03-19T21:56:46.105Z,1.08
2023-03-19T21:59:17.945Z,1.45
2023-03-19T22:01:46.610Z,1.00
2023-03-19T22:04:14.729Z,1.25
2023-03-19T22:06:43.040Z,0.95
2023-03-19T22:09:11.002Z,1.10
2023-03-19T22:11:41.611Z,1.20
2023-03-19T22:14:20.892Z,1.40
2023-03-19T22:16:53.118Z,1.38
2023-03-19T22:19:21.911Z,1.20
2023-03-19T22:21:50.480Z,1.35
2023-03-19T22:24:18.307Z,1.55
2023-03-19T22:26:47.655Z,1.50
2023-03-19T22:29:19.491Z,1.52
2023-03-19T22:31:49.177Z,1.55
2023-03-19T22:34:18.480Z,1.55
2023-03-19T22:36:46.690Z,1.55
2023-03-19T22:39:14.596Z,1.70
2023-03-19T22:41:45.561Z,1.95
2023-03-19T22:44:22.347Z,1.83
2023-03-19T22:46:50.348Z,1.70
2023-03-19T22:49:18.878Z,1.70
2023-03-19T22:51:47.329Z,2.05
2023-03-19T22:54:15.652Z,1.98
2023-03-19T22:56:43.402Z,2.28
2023-03-19T22:59:11.356Z,2.35
2023-03-19T23:01:43.164Z,2.15
2023-03-19T23:06:35.847Z,3.10
2023-03-19T23:09:03.830Z,2.28
2023-03-19T23:11:31.660Z,1.92
2023-03-19T23:13:59.665Z,2.42
2023-03-19T23:16:28.123Z,2.75
2023-03-19T23:21:23.418Z,2.92
2023-03-19T23:23:52.997Z,4.45
2023-03-19T23:26:26.792Z,3.42
2023-03-19T23:28:56.432Z,2.55
2023-03-19T23:31:24.512Z,3.20
2023-03-19T23:33:52.451Z,3.60
2023-03-19T23:36:20.405Z,3.42
2023-03-19T23:38:48.433Z,3.42
2023-03-19T23:41:24.887Z,3.40
2023-03-19T23:43:52.869Z,3.40
2023-03-19T23:46:21.255Z,3.47
2023-03-19T23:48:49.061Z,3.40
2023-03-19T23:51:17.588Z,3.13
2023-03-19T23:53:46.000Z,3.20
2023-03-19T23:56:19.876Z,3.13
2023-03-19T23:58:51.348Z,2.97
